Time;durP1;ratioP1;P1;durP2;ratioP2;P2;SDS_P1;SDS_P2;PMS_P1;PMS_P2;Temp;Humidity;BMP_temperature;BMP_pressure;BME280_temperature;BME280_humidity;BME280_pressure;Samples;Min_cycle;Max_cycle;Signal;HPM_P1;HPM_P2
2021/03/15 00:02:30;;;;;;;56.35;30.73;;;;;;;5.79;100.00;95968.03;5061917;28;20477;-66
2021/03/15 00:05:16;;;;;;;54.85;29.85;;;;;;;5.62;100.00;95961.09;5062714;28;20039;-66
2021/03/15 00:08:00;;;;;;;51.50;29.30;;;;;;;5.54;100.00;95964.88;5061915;28;20048;-66
2021/03/15 00:10:45;;;;;;;60.05;31.30;;;;;;;5.46;100.00;95962.34;5061527;28;20042;-65
2021/03/15 00:13:29;;;;;;;54.53;31.00;;;;;;;5.48;100.00;95949.03;5067516;28;20080;-68
2021/03/15 00:16:14;;;;;;;55.13;29.88;;;;;;;5.65;100.00;95960.34;5066114;28;20215;-67
2021/03/15 00:18:58;;;;;;;57.58;32.03;;;;;;;5.75;100.00;95964.44;5067659;28;20109;-68
2021/03/15 00:21:42;;;;;;;62.15;31.88;;;;;;;5.63;100.00;95939.88;5066601;28;20506;-67
2021/03/15 00:24:26;;;;;;;61.58;32.55;;;;;;;5.68;100.00;95956.06;5067298;28;20094;-66
2021/03/15 00:27:10;;;;;;;69.03;34.83;;;;;;;5.38;100.00;95939.44;5066707;28;20109;-66
2021/03/15 00:29:54;;;;;;;63.03;33.85;;;;;;;5.35;100.00;95931.94;5066885;28;20043;-67
2021/03/15 00:32:39;;;;;;;64.78;34.72;;;;;;;5.50;100.00;95946.72;5066920;28;20415;-67
2021/03/15 00:35:23;;;;;;;65.10;32.45;;;;;;;4.88;100.00;95842.81;5066633;28;20067;-67
2021/03/15 00:38:07;;;;;;;57.35;31.33;;;;;;;5.44;100.00;95939.94;5072606;28;20063;-67
2021/03/15 00:40:51;;;;;;;69.57;35.10;;;;;;;5.33;100.00;95934.25;5065264;28;20035;-67
2021/03/15 00:43:35;;;;;;;84.85;47.13;;;;;;;4.15;100.00;95750.53;5067283;28;20131;-68
2021/03/15 00:46:19;;;;;;;84.60;42.30;;;;;;;4.75;100.00;95888.00;5066331;28;20073;-68
2021/03/15 00:49:03;;;;;;;79.72;40.88;;;;;;;5.37;100.00;95934.31;5065566;28;20683;-69
2021/03/15 00:51:47;;;;;;;90.43;42.03;;;;;;;5.35;100.00;95933.88;5065402;28;20043;-68
2021/03/15 00:54:32;;;;;;;85.28;42.55;;;;;;;5.30;100.00;95893.00;5065912;28;20574;-68
2021/03/15 00:57:17;;;;;;;67.82;36.88;;;;;;;5.47;100.00;95906.28;5065353;28;20472;-68
2021/03/15 01:00:01;;;;;;;74.32;37.63;;;;;;;5.50;100.00;95914.56;5066542;28;20153;-65
2021/03/15 01:02:45;;;;;;;61.45;33.42;;;;;;;5.45;100.00;95916.81;5065320;28;20052;-67
2021/03/15 01:05:41;;;;;;;72.97;38.15;;;;;;;5.37;100.00;95910.41;5064609;28;20102;-68
2021/03/15 01:08:25;;;;;;;62.50;33.30;;;;;;;4.84;100.00;95831.00;5065198;28;20052;-67
2021/03/15 01:11:10;;;;;;;59.35;32.50;;;;;;;5.41;100.00;95907.72;5065641;28;20039;-66
2021/03/15 01:13:54;;;;;;;56.33;30.58;;;;;;;4.87;100.00;95805.59;5066316;28;20145;-67
2021/03/15 01:16:38;;;;;;;51.08;28.38;;;;;;;5.07;100.00;95829.06;5065803;28;20043;-68
2021/03/15 01:19:25;;;;;;;50.50;28.02;;;;;;;5.68;100.00;95909.38;5067002;28;20043;-66
2021/03/15 01:22:10;;;;;;;47.95;25.77;;;;;;;5.58;99.99;95846.84;5066348;28;20048;-67
2021/03/15 01:24:55;;;;;;;43.40;25.40;;;;;;;5.86;99.63;95883.81;5065129;28;20136;-68
2021/03/15 01:27:39;;;;;;;44.17;25.13;;;;;;;6.09;99.15;95898.31;5065844;28;20055;-68
2021/03/15 01:30:28;;;;;;;41.50;24.75;;;;;;;6.12;96.51;95869.28;5065851;28;20579;-67
2021/03/15 01:33:14;;;;;;;46.25;25.60;;;;;;;6.10;95.75;95866.91;5064734;28;20439;-68
2021/03/15 01:35:58;;;;;;;46.22;25.25;;;;;;;6.07;95.92;95888.84;5065557;28;20068;-67
2021/03/15 01:38:42;;;;;;;44.10;25.98;;;;;;;3.36;96.75;95474.75;5066097;28;20089;-67
2021/03/15 01:41:26;;;;;;;46.70;26.92;;;;;;;3.22;98.02;95455.34;5065051;28;20047;-67
2021/03/15 01:44:11;;;;;;;49.78;26.65;;;;;;;5.77;96.93;95816.53;5065962;28;20104;-68
2021/03/15 01:46:55;;;;;;;47.17;26.00;;;;;;;6.22;96.85;95863.16;5065114;28;20082;-68
2021/03/15 01:49:39;;;;;;;49.05;27.23;;;;;;;6.31;95.77;95849.94;5065322;28;20118;-67
2021/03/15 01:52:23;;;;;;;50.65;27.95;;;;;;;6.29;95.82;95834.97;5058929;28;20656;-68
2021/03/15 01:55:10;;;;;;;48.17;27.08;;;;;;;6.51;96.01;95848.66;5043702;28;20043;-68
2021/03/15 01:57:54;;;;;;;50.65;28.63;;;;;;;6.15;96.82;95808.06;5044094;28;20454;-67
2021/03/15 02:00:39;;;;;;;57.67;29.60;;;;;;;6.31;97.20;95833.44;5044450;28;20063;-68
2021/03/15 02:03:24;;;;;;;49.33;28.10;;;;;;;6.49;96.19;95822.66;5045887;28;20114;-67
2021/03/15 02:06:09;;;;;;;49.25;27.40;;;;;;;6.50;96.20;95852.56;5045154;28;20060;-67
2021/03/15 02:08:53;;;;;;;46.50;26.15;;;;;;;5.41;97.59;95679.81;5045495;28;20083;-66
2021/03/15 02:11:50;;;;;;;46.47;27.02;;;;;;;6.21;99.35;95823.09;5043451;28;20118;-67
2021/03/15 02:14:43;;;;;;;41.90;23.98;;;;;;;-3.17;97.37;94347.50;5043929;28;20060;-67
2021/03/15 02:17:58;;;;;;;40.30;24.50;;;;;;;6.37;99.96;95842.94;5044747;28;20167;-67
2021/03/15 02:20:43;;;;;;;43.33;25.33;;;;;;;6.48;99.99;95832.88;5044513;28;20048;-68
2021/03/15 02:23:45;;;;;;;49.47;26.95;;;;;;;6.64;98.45;95833.47;5045239;28;20470;-68
2021/03/15 02:27:03;;;;;;;50.58;27.30;;;;;;;6.53;100.00;95845.53;5044751;28;20056;-70
2021/03/15 02:30:02;;;;;;;62.20;34.42;;;;;;;6.66;100.00;95828.41;5043968;28;20091;-69
2021/03/15 02:33:09;;;;;;;60.20;33.80;;;;;;;6.58;100.00;95809.41;5044707;28;20529;-70
2021/03/15 02:35:56;;;;;;;51.33;29.42;;;;;;;6.15;100.00;95766.84;5042867;28;20113;-69
2021/03/15 02:38:45;;;;;;;51.30;28.95;;;;;;;6.62;100.00;95822.06;5044193;28;20064;-67
2021/03/15 02:41:29;;;;;;;48.63;27.65;;;;;;;6.90;100.00;95816.91;5043747;28;20584;-68
2021/03/15 02:44:16;;;;;;;53.17;29.05;;;;;;;6.97;100.00;95830.72;5042845;28;20064;-68
2021/03/15 02:47:02;;;;;;;45.35;24.90;;;;;;;6.21;97.34;95696.66;5042546;28;20036;-69
2021/03/15 02:49:50;;;;;;;51.33;28.27;;;;;;;6.86;97.08;95783.03;5043348;28;20622;-69
2021/03/15 02:52:40;;;;;;;53.58;27.27;;;;;;;7.08;97.96;95836.34;5050917;28;20040;-68
2021/03/15 02:55:29;;;;;;;46.28;26.73;;;;;;;6.63;99.68;95809.88;5064104;28;20071;-68
2021/03/15 02:58:13;;;;;;;46.88;26.10;;;;;;;6.35;100.00;95787.53;5064539;28;20063;-68
2021/03/15 03:00:59;;;;;;;46.20;26.10;;;;;;;6.65;98.06;95799.31;5063810;28;20134;-67
2021/03/15 03:03:43;;;;;;;50.45;25.80;;;;;;;6.59;97.64;95817.28;5063139;28;20145;-67
2021/03/15 03:06:30;;;;;;;49.40;26.55;;;;;;;6.54;98.57;95784.63;5062259;28;20119;-67
2021/03/15 03:09:16;;;;;;;45.35;25.45;;;;;;;6.76;97.25;95797.47;5063985;28;20044;-69
2021/03/15 03:12:02;;;;;;;42.65;24.73;;;;;;;6.55;97.59;95750.44;5063857;28;20406;-68
2021/03/15 03:14:48;;;;;;;45.08;26.98;;;;;;;6.86;96.96;95788.53;5064046;28;20141;-68
2021/03/15 03:17:41;;;;;;;46.50;26.67;;;;;;;5.86;95.94;95614.53;5063823;28;20071;-68
2021/03/15 03:20:26;;;;;;;49.13;27.65;;;;;;;6.99;96.60;95787.09;5062996;28;20035;-67
2021/03/15 03:23:11;;;;;;;52.33;30.40;;;;;;;7.06;96.50;95769.88;5062592;28;20109;-69
2021/03/15 03:25:57;;;;;;;57.38;32.17;;;;;;;7.09;96.96;95769.91;5063588;28;20034;-68
2021/03/15 03:28:44;;;;;;;64.70;36.42;;;;;;;6.28;96.77;95712.41;5063947;28;20056;-68
2021/03/15 03:31:31;;;;;;;70.38;38.65;;;;;;;6.78;96.76;95742.84;5063373;28;20035;-69
2021/03/15 03:34:15;;;;;;;64.15;36.95;;;;;;;6.79;96.60;95705.91;5063845;28;20043;-68
2021/03/15 03:36:59;;;;;;;62.35;35.88;;;;;;;7.05;96.63;95736.03;5063000;28;20101;-67
2021/03/15 03:39:43;;;;;;;62.80;34.05;;;;;;;7.03;97.89;95749.41;5063036;28;20083;-67
2021/03/15 03:42:28;;;;;;;63.33;35.33;;;;;;;7.08;97.24;95746.28;5063286;28;20089;-68
2021/03/15 03:45:13;;;;;;;65.55;37.92;;;;;;;7.21;96.89;95747.59;5063041;28;20102;-68
2021/03/15 03:47:58;;;;;;;73.25;42.00;;;;;;;6.75;97.16;95672.06;5061818;28;20134;-68
2021/03/15 03:50:42;;;;;;;75.15;42.83;;;;;;;7.13;97.32;95734.91;5062005;28;20042;-68
2021/03/15 03:53:49;;;;;;;65.10;36.17;;;;;;;7.09;97.93;95730.56;5049974;28;20365;-68
2021/03/15 03:56:50;;;;;;;65.50;35.35;;;;;;;6.99;97.70;95707.28;5041970;28;20044;-69
2021/03/15 03:59:37;;;;;;;60.72;35.05;;;;;;;6.72;97.29;95672.03;5042361;28;20090;-68
2021/03/15 04:02:25;;;;;;;68.93;39.42;;;;;;;6.70;98.33;95694.41;5042667;28;20044;-69
2021/03/15 04:05:15;;;;;;;77.55;42.53;;;;;;;6.88;99.75;95725.66;5041457;28;20051;-69
2021/03/15 04:08:05;;;;;;;63.05;36.30;;;;;;;7.05;98.74;95724.25;5043284;28;20122;-69
2021/03/15 04:10:50;;;;;;;58.38;35.08;;;;;;;6.66;96.90;95643.28;5042715;28;20503;-68
2021/03/15 04:13:36;;;;;;;57.75;32.05;;;;;;;7.09;98.05;95739.63;5042395;28;20085;-68
2021/03/15 04:16:27;;;;;;;59.92;31.27;;;;;;;7.17;98.30;95735.75;5043131;28;20565;-68
2021/03/15 04:19:12;;;;;;;58.08;32.08;;;;;;;7.17;98.46;95737.72;5042081;28;20063;-68
2021/03/15 04:22:01;;;;;;;52.83;30.77;;;;;;;6.87;98.39;95684.75;5042399;28;20056;-67
2021/03/15 04:24:46;;;;;;;69.43;36.90;;;;;;;6.71;98.13;95653.94;5043083;28;20534;-69
2021/03/15 04:27:31;;;;;;;54.15;31.20;;;;;;;7.27;98.02;95732.28;5042928;28;20118;-69
2021/03/15 04:30:16;;;;;;;56.22;33.60;;;;;;;7.27;97.92;95726.78;5042936;28;20043;-68
2021/03/15 04:33:01;;;;;;;64.90;35.58;;;;;;;6.21;96.81;95586.69;5042071;28;20129;-68
2021/03/15 04:35:45;;;;;;;59.15;33.80;;;;;;;6.97;96.83;95657.31;5041858;28;20580;-66
2021/03/15 04:38:30;;;;;;;57.35;32.25;;;;;;;7.49;97.04;95728.53;5043230;28;20110;-68
2021/03/15 04:41:16;;;;;;;64.60;31.52;;;;;;;7.03;98.83;95699.84;5042669;28;20047;-70
2021/03/15 04:44:00;;;;;;;52.42;30.30;;;;;;;7.37;96.46;95731.59;5043157;28;20064;-68
2021/03/15 04:46:45;;;;;;;51.25;31.10;;;;;;;7.00;96.64;95688.81;5042680;28;20704;-67
2021/03/15 04:49:31;;;;;;;59.08;31.27;;;;;;;7.00;97.05;95717.09;5043407;28;20040;-68
2021/03/15 04:52:15;;;;;;;59.70;31.05;;;;;;;6.67;96.47;95642.88;5047056;28;20505;-67
2021/03/15 04:55:00;;;;;;;56.00;29.95;;;;;;;7.13;97.10;95729.41;5063333;28;20039;-67
2021/03/15 04:57:45;;;;;;;57.53;32.83;;;;;;;7.18;96.68;95698.78;5062795;28;20414;-67
2021/03/15 05:00:29;;;;;;;56.42;31.20;;;;;;;7.36;95.34;95696.97;5064176;28;20043;-67
2021/03/15 05:03:15;;;;;;;53.22;30.58;;;;;;;7.68;94.43;95708.97;5064914;28;20043;-67
2021/03/15 05:05:59;;;;;;;62.50;35.88;;;;;;;7.84;93.42;95700.41;5065364;28;20094;-66
2021/03/15 05:08:48;;;;;;;81.53;46.63;;;;;;;7.97;92.69;95698.09;5066394;28;20051;-68
2021/03/15 05:11:36;;;;;;;47.15;30.98;;;;;;;7.86;92.23;95697.25;5064657;28;20086;-67
2021/03/15 05:14:21;;;;;;;51.72;30.00;;;;;;;7.83;92.82;95698.03;5065096;28;20124;-67
2021/03/15 05:17:05;;;;;;;54.85;31.83;;;;;;;7.93;91.94;95702.81;5063739;28;20071;-67
2021/03/15 05:19:51;;;;;;;55.78;32.15;;;;;;;7.29;91.01;95586.75;5065692;28;20572;-67
2021/03/15 05:22:36;;;;;;;58.03;34.67;;;;;;;7.97;91.88;95692.59;5066058;28;20074;-69
2021/03/15 05:25:21;;;;;;;59.65;38.08;;;;;;;8.11;91.24;95693.47;5064174;28;20043;-66
2021/03/15 05:28:07;;;;;;;102.25;61.60;;;;;;;8.19;90.08;95688.78;5064324;28;20516;-66
2021/03/15 05:30:51;;;;;;;65.57;37.63;;;;;;;7.79;92.22;95688.97;5065687;28;20468;-66
2021/03/15 05:33:37;;;;;;;66.90;37.53;;;;;;;7.96;92.27;95685.50;5064525;28;20151;-68
2021/03/15 05:36:24;;;;;;;61.75;35.78;;;;;;;7.58;91.62;95607.78;5064386;28;20138;-67
2021/03/15 05:39:08;;;;;;;93.65;44.30;;;;;;;8.21;91.43;95680.91;5064396;28;20067;-68
2021/03/15 05:42:07;;;;;;;74.78;42.65;;;;;;;8.07;91.41;95653.25;5065546;28;20044;-67
2021/03/15 05:45:00;;;;;;;135.07;56.75;;;;;;;8.38;91.28;95660.88;5065829;28;20380;-68
2021/03/15 05:48:04;;;;;;;76.30;45.55;;;;;;;8.51;90.08;95656.59;5066020;28;20042;-67
2021/03/15 05:51:07;;;;;;;85.68;49.10;;;;;;;8.54;90.07;95658.56;5065163;28;20051;-66
2021/03/15 05:54:30;;;;;;;54.50;33.00;;;;;;;8.11;92.53;95654.09;5058513;28;20040;-66
2021/03/15 05:57:36;;;;;;;51.10;30.90;;;;;;;7.93;94.37;95655.97;5044800;28;20071;-66
2021/03/15 06:00:46;;;;;;;49.58;29.35;;;;;;;8.47;92.25;95655.81;5044991;28;20122;-66
2021/03/15 06:03:51;;;;;;;87.22;47.00;;;;;;;8.86;89.81;95646.41;5045279;28;20056;-66
2021/03/15 06:06:39;;;;;;;155.60;86.35;;;;;;;9.25;86.52;95651.16;5043070;28;20091;-66
2021/03/15 06:09:30;;;;;;;72.60;43.60;;;;;;;9.40;85.80;95642.47;5044978;28;20060;-66
2021/03/15 06:12:25;;;;;;;88.95;55.97;;;;;;;9.33;88.26;95653.50;5044961;28;20556;-66
2021/03/15 06:15:09;;;;;;;48.78;30.35;;;;;;;8.71;88.11;95588.81;5043767;28;20082;-66
2021/03/15 06:17:56;;;;;;;53.22;31.58;;;;;;;9.13;91.65;95666.94;5044216;28;20238;-65
2021/03/15 06:20:44;;;;;;;48.85;28.88;;;;;;;9.48;87.65;95646.00;5044099;28;20103;-66
2021/03/15 06:23:29;;;;;;;52.13;30.02;;;;;;;9.54;86.56;95592.69;5044906;28;20471;-67
2021/03/15 06:26:13;;;;;;;47.85;28.65;;;;;;;9.40;87.00;95584.44;5044344;28;20052;-67
2021/03/15 06:29:01;;;;;;;54.40;29.67;;;;;;;7.07;89.93;95320.78;5045379;28;20128;-66
2021/03/15 06:31:50;;;;;;;58.97;31.85;;;;;;;9.40;93.17;95634.16;5044433;28;20439;-66
2021/03/15 06:34:36;;;;;;;60.60;32.53;;;;;;;9.66;92.11;95628.19;5043374;28;20106;-66
2021/03/15 06:37:21;;;;;;;62.10;33.38;;;;;;;9.11;92.83;95553.31;5044844;28;20526;-74
2021/03/15 06:40:06;;;;;;;66.60;35.80;;;;;;;9.83;92.96;95616.28;5043744;28;20439;-69
2021/03/15 06:42:51;;;;;;;68.85;34.00;;;;;;;9.23;94.78;95539.06;5044840;28;20052;-69
2021/03/15 06:45:35;;;;;;;67.93;34.60;;;;;;;9.17;96.16;95551.72;5047351;28;20086;-68
2021/03/15 06:48:20;;;;;;;77.10;36.95;;;;;;;8.76;95.03;95464.19;5048380;28;20098;-69
2021/03/15 06:51:04;;;;;;;86.75;40.70;;;;;;;9.82;95.05;95620.25;5055949;28;20038;-67
2021/03/15 06:53:49;;;;;;;90.40;41.08;;;;;;;9.16;99.77;95576.97;5063388;28;20524;-69
2021/03/15 06:56:33;;;;;;;80.40;36.33;;;;;;;8.91;100.00;95609.34;5063852;28;20534;-68
2021/03/15 06:59:17;;;;;;;83.40;37.35;;;;;;;8.97;100.00;95616.03;5050434;28;20047;-66
2021/03/15 07:02:01;;;;;;;88.85;39.45;;;;;;;8.85;100.00;95605.41;5063873;28;20047;-65
2021/03/15 07:04:46;;;;;;;93.70;40.97;;;;;;;8.47;100.00;95562.00;5063791;28;20434;-69
2021/03/15 07:07:30;;;;;;;108.60;49.40;;;;;;;8.83;100.00;95613.28;5062314;28;20038;-68
2021/03/15 07:10:26;;;;;;;108.93;51.05;;;;;;;8.91;100.00;95598.28;5063444;28;20756;-68
2021/03/15 07:13:19;;;;;;;170.13;108.07;;;;;;;9.04;100.00;95591.97;5076534;28;20578;-65
2021/03/15 07:16:04;;;;;;;167.03;104.73;;;;;;;8.72;100.00;95562.78;5062761;28;20070;-66
2021/03/15 07:18:48;;;;;;;84.25;40.42;;;;;;;9.34;100.00;95616.41;5063492;28;20097;-66
2021/03/15 07:21:39;;;;;;;109.00;50.17;;;;;;;9.16;100.00;95579.72;5061324;28;20051;-66
2021/03/15 07:24:29;;;;;;;89.18;40.28;;;;;;;9.03;100.00;95604.19;5048424;28;20131;-66
2021/03/15 07:27:27;;;;;;;93.15;41.80;;;;;;;8.68;100.00;95601.44;5076867;28;20584;-66
2021/03/15 07:30:37;;;;;;;86.68;39.80;;;;;;;8.71;100.00;95594.34;5044330;28;20540;-66
2021/03/15 07:33:21;;;;;;;98.97;44.35;;;;;;;8.78;100.00;95561.22;5043265;28;20120;-65
2021/03/15 07:36:11;;;;;;;89.53;42.17;;;;;;;9.19;100.00;95592.75;5042753;28;20521;-68
2021/03/15 07:38:57;;;;;;;85.95;40.13;;;;;;;9.10;100.00;95584.09;5061162;28;20411;-66
2021/03/15 07:41:45;;;;;;;88.68;41.38;;;;;;;9.40;100.00;95545.75;5057109;28;20055;-67
2021/03/15 07:44:33;;;;;;;78.63;39.85;;;;;;;9.90;97.41;95576.75;5049774;28;20053;-65
2021/03/15 07:47:25;;;;;;;81.93;40.88;;;;;;;10.10;94.85;95575.91;5062229;28;20071;-62
2021/03/15 07:50:09;;;;;;;88.72;43.95;;;;;;;9.86;96.21;95571.25;5055778;28;20071;-69
2021/03/15 07:52:54;;;;;;;91.15;41.80;;;;;;;9.28;96.25;95484.59;5053619;28;20078;-65
2021/03/15 07:55:38;;;;;;;;;;;;;;;10.30;94.15;95567.91;5049839;28;20120;-71
2021/03/15 07:58:40;;;;;;;82.88;39.28;;;;;;;9.39;98.98;95557.97;5045357;28;19978;-64
2021/03/15 08:01:25;;;;;;;98.22;45.63;;;;;;;9.06;100.00;95484.66;5058255;28;20095;-65
2021/03/15 08:04:09;;;;;;;86.15;42.80;;;;;;;9.48;99.68;95549.25;5049944;28;20055;-67
2021/03/15 08:06:53;;;;;;;87.72;44.10;;;;;;;9.51;100.00;95554.78;5042756;28;20044;-65
2021/03/15 08:09:40;;;;;;;89.43;43.55;;;;;;;9.05;99.49;95438.91;5044898;28;20220;-67
2021/03/15 08:12:28;;;;;;;94.43;44.75;;;;;;;10.19;96.60;95534.75;5043577;28;20573;-66
2021/03/15 08:15:13;;;;;;;86.13;43.45;;;;;;;10.33;94.53;95529.13;5046026;28;20079;-64
2021/03/15 08:17:59;;;;;;;79.63;40.65;;;;;;;9.96;95.92;95539.19;5062728;28;20063;-68
2021/03/15 08:20:46;;;;;;;89.18;45.20;;;;;;;10.06;94.23;95481.06;5060680;28;20567;-68
2021/03/15 08:23:32;;;;;;;92.43;43.10;;;;;;;8.98;89.40;95206.16;5063566;28;20543;-68
2021/03/15 08:26:16;;;;;;;76.35;40.42;;;;;;;10.59;87.33;95426.09;5042629;28;20039;-71
2021/03/15 08:29:03;;;;;;;82.97;41.75;;;;;;;11.35;86.07;95508.06;5043494;28;20043;-71
2021/03/15 08:31:48;;;;;;;74.75;41.10;;;;;;;10.80;86.77;95430.66;5047523;28;20564;-69
2021/03/15 08:34:37;;;;;;;68.35;38.25;;;;;;;11.13;86.56;95515.81;5052081;28;20178;-73
2021/03/15 08:37:59;;;;;;;87.95;44.40;;;;;;;11.05;88.74;95508.00;5062935;28;20526;-70
2021/03/15 08:40:44;;;;;;;78.57;39.78;;;;;;;11.50;85.99;95501.16;5053960;28;20118;-71
2021/03/15 08:43:39;;;;;;;70.85;38.17;;;;;;;12.20;83.17;95489.19;5059177;28;20431;-69
2021/03/15 08:46:26;;;;;;;62.67;36.25;;;;;;;12.68;80.13;95481.28;5059922;28;20047;-62
2021/03/15 08:49:19;;;;;;;62.15;35.28;;;;;;;13.12;77.61;95477.41;5046505;28;20052;-66
2021/03/15 08:52:04;;;;;;;52.50;31.38;;;;;;;13.45;75.90;95474.34;5045580;28;20072;-64
2021/03/15 08:54:48;;;;;;;57.15;33.35;;;;;;;13.85;73.42;95474.38;5046289;28;20102;-63
2021/03/15 08:57:34;;;;;;;52.05;34.28;;;;;;;11.76;71.94;95120.50;5046378;28;20060;-63
2021/03/15 09:00:33;;;;;;;54.00;33.47;;;;;;;13.79;72.29;95456.59;5057555;28;20129;-63
2021/03/15 09:03:53;;;;;;;53.38;34.97;;;;;;;12.31;77.48;95351.00;5049195;28;20124;-65
2021/03/15 09:06:43;;;;;;;58.55;34.72;;;;;;;12.79;78.41;95456.88;5046848;28;20051;-69
2021/03/15 09:09:33;;;;;;;52.85;32.17;;;;;;;12.92;74.57;95357.81;5045629;28;20287;-64
2021/03/15 09:12:18;;;;;;;49.22;30.27;;;;;;;13.37;72.83;95383.94;5060959;28;20082;-63
2021/03/15 09:15:01;;;;;;;;;;;;;;;14.06;72.63;95418.22;5065023;28;20074;-67
2021/03/15 09:17:45;;;;;;;51.70;32.92;;;;;;;13.74;71.06;95351.38;5065151;28;19974;-65
2021/03/15 09:20:35;;;;;;;;;;;;;;;14.54;69.35;95401.59;5064150;28;20573;-66
2021/03/15 09:23:32;;;;;;;48.97;31.40;;;;;;;14.05;70.44;95349.84;5045073;28;20368;-64
2021/03/15 09:26:25;;;;;;;51.13;30.60;;;;;;;13.44;73.32;95403.28;5051334;28;20044;-63
2021/03/15 09:29:10;;;;;;;48.55;30.85;;;;;;;13.73;73.15;95383.19;5046864;28;20091;-66
2021/03/15 09:32:11;;;;;;;49.10;29.98;;;;;;;14.02;72.09;95389.69;5052274;28;20074;-64
2021/03/15 09:34:58;;;;;;;48.25;29.73;;;;;;;14.03;70.92;95346.72;5046871;28;20082;-69
2021/03/15 09:37:47;;;;;;;50.20;31.13;;;;;;;14.33;70.00;95343.63;5056649;28;20533;-66
2021/03/15 09:40:53;;;;;;;48.63;29.45;;;;;;;14.84;68.76;95373.34;5051930;28;20107;-67
2021/03/15 09:43:38;;;;;;;49.83;29.75;;;;;;;15.05;67.47;95372.75;5044434;28;20142;-66
2021/03/15 09:46:25;;;;;;;46.28;30.35;;;;;;;15.48;67.00;95356.44;5045863;28;20037;-64
2021/03/15 09:49:09;;;;;;;47.03;31.45;;;;;;;15.94;64.14;95367.00;5052563;28;20048;-64
2021/03/15 09:51:54;;;;;;;46.63;30.77;;;;;;;15.45;62.35;95256.88;5065180;28;20679;-64
2021/03/15 09:54:41;;;;;;;;;;;;;;;16.14;62.76;95348.03;5052745;28;20099;-65
2021/03/15 09:57:25;;;;;;;49.85;32.00;;;;;;;15.39;62.57;95208.44;5056878;28;19939;-65
2021/03/15 10:00:15;;;;;;;43.00;30.02;;;;;;;16.71;60.57;95335.78;5046252;28;20117;-67
2021/03/15 10:03:00;;;;;;;44.53;26.27;;;;;;;16.42;60.53;95296.03;5045650;28;20106;-65
2021/03/15 10:05:47;;;;;;;38.83;26.35;;;;;;;16.24;60.26;95291.03;5049023;28;20521;-65
2021/03/15 10:08:31;;;;;;;32.15;23.13;;;;;;;16.22;61.64;95320.63;5064024;28;20123;-65
2021/03/15 10:11:16;;;;;;;35.05;23.05;;;;;;;16.15;60.81;95304.91;5056179;28;20028;-64
2021/03/15 10:14:03;;;;;;;32.03;21.58;;;;;;;16.29;60.10;95309.25;5044033;28;20079;-64
2021/03/15 10:16:55;;;;;;;31.05;21.40;;;;;;;16.08;60.65;95302.34;5044702;28;20534;-63
2021/03/15 10:19:39;;;;;;;33.33;21.92;;;;;;;15.18;65.50;95298.31;5048382;28;20569;-63
2021/03/15 10:22:24;;;;;;;36.55;21.70;;;;;;;15.45;63.64;95295.16;5043011;28;20902;-63
2021/03/15 10:25:08;;;;;;;29.55;19.80;;;;;;;15.46;62.60;95286.34;5044419;28;20048;-63
2021/03/15 10:27:58;;;;;;;31.83;20.73;;;;;;;15.36;62.47;95281.84;5044567;28;20076;-63
2021/03/15 10:30:42;;;;;;;29.80;20.77;;;;;;;14.35;63.87;95163.69;5043222;28;20116;-63
2021/03/15 10:33:26;;;;;;;32.83;19.77;;;;;;;15.00;65.27;95275.75;5045875;28;20125;-64
2021/03/15 10:36:11;;;;;;;31.30;21.15;;;;;;;14.66;67.23;95262.34;5064183;28;20047;-63
2021/03/15 10:38:56;;;;;;;33.70;22.13;;;;;;;14.49;69.79;95268.41;5065216;28;20453;-63
2021/03/15 10:41:41;;;;;;;36.95;23.27;;;;;;;14.51;70.34;95254.81;5064206;28;20101;-65
2021/03/15 10:44:25;;;;;;;35.70;23.27;;;;;;;13.59;69.75;95145.81;5064818;28;20077;-64
2021/03/15 10:47:11;;;;;;;36.65;24.45;;;;;;;14.34;70.13;95244.91;5063984;28;20089;-64
2021/03/15 10:49:55;;;;;;;38.97;24.50;;;;;;;14.29;70.17;95242.69;5063267;28;20105;-63
2021/03/15 10:52:39;;;;;;;46.22;29.08;;;;;;;13.91;70.41;95150.56;5063326;28;20621;-65
2021/03/15 10:55:33;;;;;;;35.45;24.45;;;;;;;14.45;70.62;95223.91;5042592;28;20094;-64
2021/03/15 10:58:19;;;;;;;51.60;27.05;;;;;;;14.13;70.68;95145.22;5043609;28;20227;-63
2021/03/15 11:01:03;;;;;;;40.92;27.38;;;;;;;13.99;70.30;95134.47;5043391;28;20091;-63
2021/03/15 11:03:48;;;;;;;44.97;26.38;;;;;;;12.54;70.36;94892.78;5052863;28;20423;-69
2021/03/15 11:06:33;;;;;;;38.20;25.20;;;;;;;13.16;70.99;95050.78;5063735;28;20071;-68
2021/03/15 11:09:16;;;;;;;;;;;;;;;14.82;69.50;95198.19;5063760;28;20596;-68
2021/03/15 11:12:01;;;;;;;37.75;25.55;;;;;;;14.72;68.99;95165.03;5062912;28;19927;-70
2021/03/15 11:15:13;;;;;;;29.02;20.40;;;;;;;15.44;62.76;95143.72;5063099;28;20855;-70
2021/03/15 11:18:13;;;;;;;31.70;20.13;;;;;;;16.23;58.95;95188.88;5043864;28;20128;-69
2021/03/15 11:21:00;;;;;;;17.92;12.15;;;;;;;16.25;58.67;95175.25;5052372;28;20276;-66
2021/03/15 11:23:44;;;;;;;20.02;10.85;;;;;;;15.64;56.95;95085.63;5050051;28;20106;-69
2021/03/15 11:26:41;;;;;;;12.68;8.82;;;;;;;16.16;54.78;95172.38;5043359;28;20120;-62
2021/03/15 11:29:36;;;;;;;15.95;10.63;;;;;;;15.30;56.10;95038.13;5052106;28;20449;-68
2021/03/15 11:32:20;;;;;;;14.57;8.20;;;;;;;16.20;57.15;95139.50;5046179;28;20032;-64
2021/03/15 11:35:05;;;;;;;10.07;7.05;;;;;;;16.32;54.58;95135.88;5057514;28;20067;-64
2021/03/15 11:37:49;;;;;;;20.65;11.77;;;;;;;16.34;53.73;95136.19;5063040;28;20101;-62
2021/03/15 11:40:38;;;;;;;15.98;10.57;;;;;;;16.28;53.17;95129.63;5060683;28;20118;-62
2021/03/15 11:43:24;;;;;;;8.95;6.82;;;;;;;15.78;52.30;95093.53;5053081;28;20592;-62
2021/03/15 11:46:08;;;;;;;22.52;12.50;;;;;;;15.65;53.00;95036.94;5055854;28;20075;-62
2021/03/15 11:48:52;;;;;;;;;;;;;;;16.07;52.41;95107.28;5055426;28;20059;-62
2021/03/15 11:51:36;;;;;;;10.85;7.60;;;;;;;15.89;52.35;95093.94;5045547;28;19929;-63
2021/03/15 11:54:20;;;;;;;;;;;;;;;15.94;51.95;95087.78;5047526;28;20050;-64
2021/03/15 11:57:04;;;;;;;42.45;26.35;;;;;;;15.26;51.42;94967.75;5045867;28;20024;-62
2021/03/15 11:59:48;;;;;;;;;;;;;;;16.29;51.31;95064.16;5052304;28;20051;-62
2021/03/15 12:02:33;;;;;;;17.05;10.27;;;;;;;15.97;52.38;95025.44;5030963;28;19947;-59
2021/03/15 12:05:19;;;;;;;15.20;10.77;;;;;;;15.21;51.73;94923.69;5009529;28;20054;-63
2021/03/15 12:08:03;;;;;;;20.10;13.95;;;;;;;16.02;51.78;95061.16;5010772;28;20051;-65
2021/03/15 12:10:48;;;;;;;16.00;10.00;;;;;;;15.08;54.63;94975.91;5024809;28;20419;-63
2021/03/15 12:13:32;;;;;;;18.98;9.15;;;;;;;14.45;62.62;95050.41;5070470;28;20087;-64
2021/03/15 12:16:16;;;;;;;;;;;;;;;13.68;71.67;95087.56;5045091;28;20056;-62
2021/03/15 12:19:00;;;;;;;14.27;9.38;;;;;;;13.28;73.33;95080.66;5044628;28;19931;-62
2021/03/15 12:21:44;;;;;;;17.25;11.70;;;;;;;12.29;75.03;94958.44;5046198;28;20048;-63
2021/03/15 12:24:28;;;;;;;31.55;22.92;;;;;;;12.93;78.36;95053.69;5047344;28;20051;-62
2021/03/15 12:27:12;;;;;;;21.67;12.63;;;;;;;13.04;77.96;95059.06;5046877;28;20953;-61
2021/03/15 12:29:56;;;;;;;16.77;12.55;;;;;;;12.85;77.07;95007.84;5045962;28;20044;-62
2021/03/15 12:32:40;;;;;;;;;;;;;;;13.40;78.54;95048.59;5047754;28;20053;-62
2021/03/15 12:35:25;;;;;;;30.85;23.00;;;;;;;13.59;79.33;95045.66;5046607;28;19923;-63
2021/03/15 12:38:09;;;;;;;31.70;19.75;;;;;;;13.19;79.11;94940.72;5047122;28;20515;-62
2021/03/15 12:40:53;;;;;;;29.02;18.60;;;;;;;13.94;76.24;95035.56;5044996;28;20103;-62
2021/03/15 12:43:37;;;;;;;28.83;21.00;;;;;;;14.38;73.18;95040.28;5047795;28;20090;-62
2021/03/15 12:46:21;;;;;;;44.58;34.15;;;;;;;14.50;75.23;95035.94;5046560;28;20040;-62
2021/03/15 12:49:06;;;;;;;47.40;30.35;;;;;;;14.32;73.84;94991.91;5047121;28;20560;-63
2021/03/15 12:51:50;;;;;;;55.67;37.08;;;;;;;14.16;72.25;94966.16;5046888;28;20040;-61
2021/03/15 12:54:34;;;;;;;50.45;44.00;;;;;;;14.49;69.13;95028.81;5045490;28;20044;-62
2021/03/15 12:57:18;;;;;;;;;;;;;;;14.55;69.52;95029.81;5046582;28;20043;-62
2021/03/15 13:00:03;;;;;;;34.63;20.15;;;;;;;14.48;69.26;95027.25;5046785;28;19939;-61